Time;durP1;ratioP1;P1;durP2;ratioP2;P2;SDS_P1;SDS_P2;PMS_P1;PMS_P2;Temp;Humidity;BMP_temperature;BMP_pressure;BME280_temperature;BME280_humidity;BME280_pressure;Samples;Min_cycle;Max_cycle;Signal;HPM_P1;HPM_P2
2022/01/24 00:01:52;;;;;;;41.28;14.30;;;;;;;-0.05;100.00;101007.06;8332932;28;20493;-72
2022/01/24 00:05:52;;;;;;;43.15;15.48;;;;;;;-0.08;100.00;101001.34;8332343;28;20123;-73
2022/01/24 00:09:57;;;;;;;38.65;13.45;;;;;;;-0.12;100.00;101005.41;8331996;28;20133;-72
2022/01/24 00:18:10;;;;;;;49.28;17.15;;;;;;;-0.10;100.00;101003.34;8332716;28;20073;-73
2022/01/24 00:26:47;;;;;;;42.95;16.58;;;;;;;-0.16;100.00;101004.16;8332260;28;20057;-72
2022/01/24 00:30:48;;;;;;;43.53;16.52;;;;;;;-0.18;100.00;101000.84;8331867;28;20125;-73
2022/01/24 00:34:49;;;;;;;43.28;14.93;;;;;;;-0.22;100.00;100999.59;8330791;28;20052;-73
2022/01/24 00:38:50;;;;;;;41.50;15.05;;;;;;;-0.21;100.00;101011.88;8331479;28;20042;-73
2022/01/24 00:42:58;;;;;;;42.67;15.25;;;;;;;-0.28;100.00;101011.00;8331835;28;20055;-72
2022/01/24 00:47:04;;;;;;;45.53;16.08;;;;;;;-0.24;100.00;101006.94;8333464;28;20041;-72
2022/01/24 00:55:24;;;;;;;56.85;17.73;;;;;;;-0.23;100.00;101013.88;8330038;28;20136;-72
2022/01/24 00:59:25;;;;;;;59.08;16.60;;;;;;;-0.15;100.00;101011.09;8331152;28;20417;-73
2022/01/24 01:03:26;;;;;;;58.30;18.30;;;;;;;-0.15;100.00;101005.78;8328884;28;20060;-72
2022/01/24 01:20:44;;;;;;;62.70;19.67;;;;;;;-0.19;100.00;101004.53;8309937;28;20540;-73
2022/01/24 01:24:51;;;;;;;62.50;20.70;;;;;;;-0.15;100.00;101000.47;8342044;28;20469;-73
2022/01/24 01:28:58;;;;;;;67.43;22.33;;;;;;;-0.17;100.00;100997.19;8331311;28;20064;-73
2022/01/24 01:33:11;;;;;;;59.45;20.45;;;;;;;-0.16;100.00;101004.16;8337418;28;20132;-73
2022/01/24 01:58:43;;;;;;;57.97;19.42;;;;;;;0.02;100.00;101012.44;8358293;28;20408;-72
2022/01/24 02:02:44;;;;;;;45.85;17.98;;;;;;;-0.03;100.00;101009.53;8357651;28;20056;-72
2022/01/24 02:06:45;;;;;;;48.50;18.38;;;;;;;0.01;100.00;101005.47;8357007;28;20044;-72
2022/01/24 02:10:45;;;;;;;46.10;17.60;;;;;;;0.02;100.00;100996.50;8364451;28;20053;-72
2022/01/24 02:14:52;;;;;;;46.35;17.40;;;;;;;-0.05;100.00;100995.63;8357650;28;20055;-73
2022/01/24 02:19:08;;;;;;;47.58;17.65;;;;;;;-0.09;100.00;100994.38;8357749;28;20492;-73
2022/01/24 02:27:19;;;;;;;50.90;18.02;;;;;;;-0.03;100.00;100993.63;8336563;28;20041;-72
2022/01/24 02:35:40;;;;;;;47.63;17.02;;;;;;;0.04;100.00;100994.50;8337380;28;20477;-72
2022/01/24 02:48:27;;;;;;;46.42;18.88;;;;;;;-0.08;99.96;100996.84;8286124;28;20194;-72
2022/01/24 02:52:28;;;;;;;50.78;18.08;;;;;;;-0.08;100.00;100996.03;8328025;28;20057;-72
2022/01/24 02:56:28;;;;;;;46.38;17.50;;;;;;;-0.09;100.00;100999.69;8328280;28;20084;-72
2022/01/24 03:00:30;;;;;;;43.92;17.98;;;;;;;-0.06;100.00;101001.97;8326704;28;20065;-72
2022/01/24 03:04:30;;;;;;;46.22;17.63;;;;;;;-0.01;100.00;100996.91;8342371;28;20077;-72
2022/01/24 03:08:31;;;;;;;45.80;19.45;;;;;;;0.02;100.00;100996.50;8334058;28;20497;-73
2022/01/24 03:12:42;;;;;;;45.45;17.48;;;;;;;0.00;100.00;100993.25;8333774;28;20160;-72
2022/01/24 03:16:43;;;;;;;52.55;17.85;;;;;;;0.05;100.00;100988.16;8332867;28;20057;-72
2022/01/24 03:20:44;;;;;;;38.50;15.38;;;;;;;-0.02;99.74;101005.88;8333814;28;20470;-72
2022/01/24 03:24:45;;;;;;;47.45;16.00;;;;;;;-0.05;100.00;101006.25;8333448;28;20048;-72
2022/01/24 03:28:46;;;;;;;44.50;17.30;;;;;;;-0.07;100.00;101010.97;8347316;28;20107;-72
2022/01/24 03:32:47;;;;;;;36.78;15.60;;;;;;;-0.07;100.00;101013.63;8354143;28;20079;-73
2022/01/24 03:36:47;;;;;;;37.40;15.15;;;;;;;-0.10;100.00;101013.97;8333031;28;20053;-72
2022/01/24 03:40:48;;;;;;;47.60;17.65;;;;;;;-0.16;100.00;101017.44;8332975;28;20049;-72
2022/01/24 03:44:55;;;;;;;64.03;21.55;;;;;;;-0.20;100.00;101008.19;8333320;28;20148;-73
2022/01/24 03:49:08;;;;;;;68.07;24.15;;;;;;;-0.24;100.00;101006.94;8333397;28;20056;-73
2022/01/24 03:53:09;;;;;;;57.25;21.50;;;;;;;-0.24;100.00;101007.75;8333125;28;20046;-73
2022/01/24 03:57:12;;;;;;;58.40;21.08;;;;;;;-0.29;100.00;101014.66;8332409;28;20554;-74
2022/01/24 04:01:12;;;;;;;49.67;19.60;;;;;;;-0.32;100.00;101004.44;8313622;28;20158;-72
2022/01/24 04:05:13;;;;;;;53.92;20.58;;;;;;;-0.35;100.00;101010.09;8333075;28;20413;-73
2022/01/24 04:09:14;;;;;;;58.50;22.02;;;;;;;-0.35;100.00;101010.09;8334290;28;20049;-73
2022/01/24 04:13:29;;;;;;;48.03;19.70;;;;;;;-0.36;100.00;101008.47;8329022;28;20063;-73
2022/01/24 04:17:43;;;;;;;58.97;19.15;;;;;;;-0.35;100.00;101010.09;8352454;28;20045;-73
2022/01/24 04:21:48;;;;;;;53.60;19.05;;;;;;;-0.37;100.00;101022.75;8359393;28;20493;-73
2022/01/24 04:25:48;;;;;;;49.70;18.73;;;;;;;-0.34;100.00;101022.38;8331891;28;20060;-73
2022/01/24 04:29:49;;;;;;;49.50;19.90;;;;;;;-0.37;99.97;101022.75;8330596;28;20073;-72
2022/01/24 04:33:50;;;;;;;54.80;19.27;;;;;;;-0.31;99.93;101032.59;8330809;28;20060;-72
2022/01/24 04:37:53;;;;;;;52.00;17.92;;;;;;;-0.27;99.47;101025.91;8330631;28;20537;-72
2022/01/24 04:41:56;;;;;;;48.03;18.10;;;;;;;-0.30;99.28;101028.94;8329756;28;20137;-71
2022/01/24 04:58:30;;;;;;;48.10;18.45;;;;;;;-0.27;98.90;101028.56;8331703;28;20467;-72
2022/01/24 05:02:31;;;;;;;55.08;20.98;;;;;;;-0.27;98.92;101033.88;8347193;28;20068;-71
2022/01/24 05:06:32;;;;;;;54.25;20.30;;;;;;;-0.30;98.73;101035.06;8304403;28;20052;-71
2022/01/24 05:10:39;;;;;;;51.85;19.80;;;;;;;-0.33;99.05;101039.94;8312240;28;20046;-71
2022/01/24 05:23:28;;;;;;;;;;;;;;;-0.39;98.90;101046.00;8318349;28;20077;-72
2022/01/24 05:27:31;;;;;;;52.83;19.17;;;;;;;-0.38;98.70;101042.34;8327576;28;19929;-72
2022/01/24 05:31:31;;;;;;;52.67;20.08;;;;;;;-0.39;98.86;101040.69;8330051;28;20116;-72
2022/01/24 05:35:32;;;;;;;58.83;22.35;;;;;;;-0.43;98.80;101027.81;8330191;28;20152;-72
2022/01/24 05:39:33;;;;;;;55.45;21.25;;;;;;;-0.51;99.12;101027.94;8330083;28;20126;-72
2022/01/24 05:43:35;;;;;;;65.97;23.55;;;;;;;-0.59;99.77;101035.22;8328571;28;20064;-72
2022/01/24 05:47:36;;;;;;;61.50;24.15;;;;;;;-0.58;99.63;101042.97;8329705;28;20060;-72
2022/01/24 05:51:36;;;;;;;57.08;22.63;;;;;;;-0.54;99.52;101043.44;8311030;28;20524;-72
2022/01/24 05:55:37;;;;;;;65.03;25.67;;;;;;;-0.55;99.56;101047.91;8329552;28;20115;-72
2022/01/24 05:59:38;;;;;;;55.97;21.83;;;;;;;-0.63;99.50;101045.38;8327328;28;20045;-73
2022/01/24 06:03:39;;;;;;;57.53;22.15;;;;;;;-0.69;99.95;101040.84;8329049;28;20267;-72
2022/01/24 06:07:40;;;;;;;59.22;22.42;;;;;;;-0.70;99.90;101044.50;8329163;28;20045;-72
2022/01/24 06:11:41;;;;;;;67.55;23.08;;;;;;;-0.80;99.70;101043.97;8328131;28;20141;-72
2022/01/24 06:15:42;;;;;;;57.97;25.17;;;;;;;-0.85;100.00;101043.72;8329199;28;20049;-72
2022/01/24 06:19:44;;;;;;;52.28;21.27;;;;;;;-0.82;100.00;101051.28;8329207;28;20490;-72
2022/01/24 06:23:45;;;;;;;66.25;26.13;;;;;;;-0.81;100.00;101062.72;8329182;28;20085;-72
2022/01/24 06:27:46;;;;;;;62.42;26.30;;;;;;;-0.81;100.00;101058.25;8329152;28;20046;-72
2022/01/24 06:31:47;;;;;;;74.35;27.58;;;;;;;-0.78;100.00;101057.84;8343496;28;20076;-72
2022/01/24 06:35:47;;;;;;;72.60;27.00;;;;;;;-0.77;100.00;101059.50;8363921;28;20426;-71
2022/01/24 06:39:48;;;;;;;89.13;31.50;;;;;;;-0.72;100.00;101051.81;8366896;28;20516;-72
2022/01/24 06:43:49;;;;;;;64.72;25.60;;;;;;;-0.67;100.00;101065.34;8368654;28;20501;-72
2022/01/24 06:47:50;;;;;;;93.30;32.80;;;;;;;-0.68;100.00;101066.34;8358524;28;20057;-73
2022/01/24 06:51:50;;;;;;;91.88;32.88;;;;;;;-0.65;100.00;101078.41;8334901;28;20045;-72
2022/01/24 06:55:51;;;;;;;66.88;24.90;;;;;;;-0.65;100.00;101079.25;8333632;28;20045;-72
2022/01/24 06:59:52;;;;;;;62.15;23.38;;;;;;;-0.68;100.00;101081.44;8335072;28;20072;-73
2022/01/24 07:03:53;;;;;;;61.17;23.35;;;;;;;-0.56;99.95;101099.34;8367841;28;20076;-73
2022/01/24 07:07:56;;;;;;;92.15;33.05;;;;;;;-0.55;99.71;101101.00;8346844;28;20060;-72
2022/01/24 07:11:58;;;;;;;59.88;22.67;;;;;;;-0.54;99.74;101083.25;8332185;28;20068;-71
2022/01/24 07:16:03;;;;;;;67.15;24.08;;;;;;;-0.55;99.85;101090.38;8334317;28;20409;-72
2022/01/24 07:20:04;;;;;;;90.82;33.45;;;;;;;-0.50;99.76;101087.97;8334346;28;20049;-72
2022/01/24 07:24:05;;;;;;;74.53;28.58;;;;;;;-0.50;99.39;101082.66;8334216;28;20436;-72
2022/01/24 07:28:06;;;;;;;74.85;27.38;;;;;;;-0.45;99.56;101090.88;8315275;28;20049;-72
2022/01/24 07:32:07;;;;;;;59.78;22.48;;;;;;;-0.38;99.63;101085.66;8356458;28;20045;-72
2022/01/24 07:36:09;;;;;;;73.30;27.77;;;;;;;-0.46;99.33;101088.41;8365568;28;20099;-73
2022/01/24 07:40:11;;;;;;;80.75;30.52;;;;;;;-0.44;99.86;101097.84;8366593;28;20530;-72
2022/01/24 07:44:13;;;;;;;120.63;46.80;;;;;;;-0.44;99.86;101097.84;8362406;28;20131;-72
2022/01/24 07:48:15;;;;;;;109.13;41.58;;;;;;;-0.43;99.79;101088.88;8361319;28;20087;-72
2022/01/24 07:52:16;;;;;;;123.43;44.85;;;;;;;-0.46;100.00;101091.88;8362755;28;20056;-71
2022/01/24 07:56:17;;;;;;;122.50;43.75;;;;;;;-0.49;100.00;101089.63;8349293;28;20148;-72
2022/01/24 08:00:19;;;;;;;101.45;38.92;;;;;;;-0.46;100.00;101078.63;8329322;28;20045;-72
2022/01/24 08:04:20;;;;;;;89.97;34.97;;;;;;;-0.44;100.00;101091.72;8329013;28;20056;-71
2022/01/24 08:08:21;;;;;;;71.03;29.50;;;;;;;-0.42;100.00;101098.47;8328989;28;20053;-72
2022/01/24 08:12:23;;;;;;;65.35;25.52;;;;;;;-0.44;99.96;101102.34;8328494;28;20053;-72
2022/01/24 08:16:24;;;;;;;61.95;25.23;;;;;;;-0.35;99.78;101105.66;8328715;28;20129;-72
2022/01/24 08:20:25;;;;;;;54.42;24.58;;;;;;;-0.31;99.57;101112.25;8330165;28;20136;-72
2022/01/24 08:24:27;;;;;;;80.43;30.27;;;;;;;-0.35;99.17;101110.97;8332481;28;20054;-72
2022/01/24 08:28:28;;;;;;;74.38;27.90;;;;;;;-0.31;99.27;101117.56;8364331;28;20127;-72
2022/01/24 08:32:29;;;;;;;76.55;28.50;;;;;;;-0.29;99.22;101126.16;8364981;28;20053;-72
2022/01/24 08:36:30;;;;;;;65.47;27.70;;;;;;;-0.18;98.55;101123.00;8361222;28;20132;-72
2022/01/24 08:40:33;;;;;;;79.20;32.38;;;;;;;-0.17;98.77;101129.97;8363725;28;20103;-71
2022/01/24 08:45:44;;;;;;;79.35;33.95;;;;;;;-0.21;98.72;101129.50;8361716;28;21385;-71
2022/01/24 08:48:54;;;;;;;76.28;29.63;;;;;;;-0.15;98.64;101127.94;8331634;28;20041;-71
2022/01/24 08:53:03;;;;;;;78.25;31.30;;;;;;;-0.18;98.67;101125.66;8331433;28;20140;-72
2022/01/24 08:57:04;;;;;;;77.38;31.08;;;;;;;-0.20;98.78;101125.03;8331258;28;20068;-73
2022/01/24 09:01:05;;;;;;;88.38;33.60;;;;;;;-0.17;98.92;101124.66;8329046;28;20115;-72
2022/01/24 09:05:07;;;;;;;85.57;33.88;;;;;;;-0.16;98.95;101127.09;8331329;28;20060;-72
2022/01/24 09:09:08;;;;;;;83.20;33.50;;;;;;;-0.22;98.41;101137.69;8329537;28;20053;-72
2022/01/24 09:13:09;;;;;;;72.90;27.67;;;;;;;-0.17;98.47;101124.66;8331027;28;20065;-73
2022/01/24 09:17:12;;;;;;;82.32;30.27;;;;;;;-0.21;98.54;101118.09;8357552;28;20064;-71
2022/01/24 09:21:14;;;;;;;74.22;28.48;;;;;;;-0.08;98.77;101118.19;8363463;28;20045;-73
2022/01/24 09:25:17;;;;;;;71.00;27.45;;;;;;;0.00;98.08;101115.44;8344014;28;20055;-73
2022/01/24 09:29:18;;;;;;;75.10;28.48;;;;;;;0.13;97.66;101110.22;8362198;28;20049;-72
2022/01/24 09:33:20;;;;;;;80.30;28.90;;;;;;;0.13;97.26;101104.91;8363086;28;20045;-72
2022/01/24 09:37:21;;;;;;;80.72;29.10;;;;;;;0.18;97.00;101113.13;8363014;28;20049;-73
2022/01/24 09:41:22;;;;;;;66.32;25.50;;;;;;;0.26;96.70;101110.34;8345154;28;20045;-72
2022/01/24 09:45:23;;;;;;;68.82;25.88;;;;;;;0.20;96.24;101105.78;8346507;28;20409;-73
2022/01/24 09:49:24;;;;;;;62.67;24.92;;;;;;;0.32;95.85;101109.53;8329884;28;20471;-73
2022/01/24 09:53:25;;;;;;;62.90;24.27;;;;;;;0.32;95.62;101109.53;8329673;28;20071;-72
2022/01/24 09:57:26;;;;;;;70.82;25.40;;;;;;;0.29;95.78;101104.63;8329393;28;20200;-72
2022/01/24 10:01:28;;;;;;;65.75;25.08;;;;;;;0.43;95.72;101106.34;8328295;28;20056;-72
2022/01/24 10:05:35;;;;;;;74.05;28.83;;;;;;;0.43;95.06;101111.66;8329315;28;20071;-72
2022/01/24 10:09:49;;;;;;;79.03;26.27;;;;;;;0.47;95.21;101111.31;8343010;28;20501;-72
2022/01/24 10:18:11;;;;;;;60.60;22.48;;;;;;;0.66;94.73;101106.09;8362180;28;20056;-72
2022/01/24 10:22:12;;;;;;;60.25;22.63;;;;;;;0.82;93.94;101104.97;8361535;28;20144;-72
2022/01/24 10:26:14;;;;;;;69.20;25.95;;;;;;;0.83;93.51;101117.25;8360865;28;20132;-72
2022/01/24 10:30:16;;;;;;;73.32;28.90;;;;;;;0.77;94.25;101107.41;8361560;28;20056;-72
2022/01/24 10:34:23;;;;;;;57.10;25.52;;;;;;;0.71;94.24;101094.88;8310390;28;20040;-72
2022/01/24 10:42:52;;;;;;;68.35;27.23;;;;;;;0.77;94.14;101091.44;8361544;28;20044;-72
2022/01/24 10:46:53;;;;;;;81.72;29.10;;;;;;;0.92;93.90;101097.44;8328804;28;20053;-72
2022/01/24 10:51:14;;;;;;;73.28;24.95;;;;;;;0.77;93.88;101102.06;8327597;28;20076;-72
2022/01/24 10:55:24;;;;;;;69.25;27.35;;;;;;;0.88;93.86;101104.19;8361395;28;20087;-72
2022/01/24 10:59:25;;;;;;;72.07;26.17;;;;;;;0.91;93.91;101093.13;8361583;28;20048;-72
2022/01/24 11:03:26;;;;;;;65.65;24.48;;;;;;;1.05;93.65;101084.22;8361484;28;20048;-72
2022/01/24 11:07:28;;;;;;;72.75;27.58;;;;;;;0.95;93.40;101080.28;8343198;28;20053;-73
2022/01/24 11:11:28;;;;;;;69.18;25.45;;;;;;;0.93;93.74;101080.47;8327217;28;20129;-72
2022/01/24 11:15:30;;;;;;;57.63;25.50;;;;;;;0.87;93.57;101078.59;8332725;28;20055;-72
2022/01/24 11:23:40;;;;;;;66.53;24.52;;;;;;;0.74;94.38;101070.56;8364236;28;20079;-72
2022/01/24 11:27:43;;;;;;;73.88;26.80;;;;;;;0.73;94.85;101074.25;8367166;28;20102;-73
2022/01/24 11:31:51;;;;;;;77.10;29.13;;;;;;;0.92;94.19;101062.88;8367195;28;20045;-72
2022/01/24 11:35:53;;;;;;;67.15;27.45;;;;;;;1.02;94.02;101068.63;8365750;28;20136;-72
2022/01/24 11:39:54;;;;;;;70.38;26.10;;;;;;;0.88;94.05;101071.44;8366914;28;20067;-72
2022/01/24 11:44:06;;;;;;;69.53;25.67;;;;;;;0.84;94.12;101071.03;8361274;28;20037;-72
2022/01/24 11:48:17;;;;;;;66.50;27.10;;;;;;;0.85;94.51;101067.31;8365984;28;20157;-73
2022/01/24 11:52:18;;;;;;;70.28;26.60;;;;;;;0.81;94.65;101066.09;8366476;28;20041;-72
2022/01/24 11:56:23;;;;;;;65.53;24.85;;;;;;;0.79;94.54;101057.50;8365182;28;20053;-72
2022/01/24 12:00:26;;;;;;;55.60;20.98;;;;;;;0.67;94.66;101059.06;8365990;28;20114;-73
2022/01/24 12:04:52;;;;;;;55.22;20.95;;;;;;;0.51;94.89;101049.56;8366231;28;20057;-72
2022/01/24 12:09:05;;;;;;;56.72;21.52;;;;;;;0.61;95.02;101049.22;8337055;28;20192;-72
2022/01/24 12:13:22;;;;;;;71.90;23.67;;;;;;;0.62;95.04;101046.34;8341662;28;20458;-72
2022/01/24 12:17:44;;;;;;;55.60;22.15;;;;;;;0.65;95.38;101034.50;8363947;28;20049;-73
2022/01/24 12:21:45;;;;;;;60.03;21.67;;;;;;;0.63;95.29;101031.22;8365674;28;20045;-73
2022/01/24 12:25:57;;;;;;;56.08;22.58;;;;;;;0.76;94.72;101036.59;8364021;28;20150;-72
2022/01/24 12:29:59;;;;;;;54.42;20.27;;;;;;;0.95;94.64;101035.88;8365151;28;20053;-72
2022/01/24 12:34:08;;;;;;;51.40;20.80;;;;;;;0.89;94.24;101026.03;8364655;28;20044;-73
2022/01/24 12:38:16;;;;;;;53.35;21.35;;;;;;;0.75;94.58;101026.97;8365182;28;20040;-73
2022/01/24 12:42:53;;;;;;;61.13;24.25;;;;;;;0.71;95.07;101033.72;8359607;28;20488;-72
2022/01/24 12:46:54;;;;;;;58.95;22.13;;;;;;;0.87;95.14;101017.41;8364130;28;20255;-72
2022/01/24 12:50:55;;;;;;;63.45;22.73;;;;;;;0.90;94.17;101014.34;8364481;28;20603;-72
2022/01/24 12:54:59;;;;;;;54.15;21.52;;;;;;;1.01;93.89;101008.44;8333098;28;20152;-72
2022/01/24 12:59:00;;;;;;;55.08;22.55;;;;;;;1.05;93.32;101014.22;8296333;28;20052;-72
2022/01/24 13:03:01;;;;;;;76.70;26.90;;;;;;;0.98;93.52;101008.03;8331033;28;20053;-72
2022/01/24 13:07:02;;;;;;;61.92;23.25;;;;;;;0.98;93.69;100998.22;8330835;28;20060;-72
2022/01/24 13:11:10;;;;;;;62.08;22.52;;;;;;;1.03;93.36;101001.09;8331190;28;20512;-72
2022/01/24 13:24:00;;;;;;;51.10;21.17;;;;;;;1.26;92.32;100996.25;8326637;28;20130;-72
2022/01/24 13:28:11;;;;;;;46.83;20.63;;;;;;;1.18;92.53;100993.78;8326476;28;20131;-72
2022/01/24 13:32:12;;;;;;;54.63;21.40;;;;;;;1.10;93.00;101001.94;8326381;28;20525;-72
2022/01/24 13:36:16;;;;;;;58.80;23.20;;;;;;;1.10;93.27;100993.97;8326105;28;20071;-72
2022/01/24 13:40:33;;;;;;;63.47;25.35;;;;;;;1.16;93.25;100995.81;8277020;28;20511;-72
2022/01/24 13:44:34;;;;;;;58.88;23.80;;;;;;;1.25;92.78;100994.63;8296041;28;20191;-73
2022/01/24 13:48:45;;;;;;;56.78;22.63;;;;;;;1.23;92.73;100986.00;8293118;28;20096;-72
2022/01/24 13:52:50;;;;;;;53.15;22.98;;;;;;;1.25;93.01;100983.97;8271491;28;20049;-73
2022/01/24 13:56:53;;;;;;;68.60;28.48;;;;;;;1.20;93.24;100981.09;8344699;28;20132;-72
2022/01/24 14:00:59;;;;;;;63.85;26.17;;;;;;;1.31;93.15;100981.53;8362527;28;20057;-72
2022/01/24 14:05:02;;;;;;;64.53;26.52;;;;;;;1.41;92.62;100982.75;8360187;28;20052;-72
2022/01/24 14:09:31;;;;;;;53.97;23.35;;;;;;;1.45;92.79;100972.50;8325298;28;20053;-73
2022/01/24 14:13:34;;;;;;;53.75;21.48;;;;;;;1.32;93.17;100977.84;8330880;28;20143;-73
2022/01/24 14:17:51;;;;;;;52.13;20.23;;;;;;;1.31;93.20;100977.03;8325684;28;20638;-72
2022/01/24 14:22:04;;;;;;;53.22;20.83;;;;;;;1.33;93.21;100976.78;8358451;28;20045;-72
2022/01/24 14:26:32;;;;;;;54.38;21.02;;;;;;;1.36;93.48;100979.88;8358099;28;20044;-72
2022/01/24 14:30:38;;;;;;;70.47;26.65;;;;;;;1.40;93.04;100989.09;8259622;28;20060;-73
2022/01/24 14:34:39;;;;;;;68.07;28.23;;;;;;;1.39;93.50;100981.31;8292593;28;20057;-73
2022/01/24 14:38:45;;;;;;;60.58;25.17;;;;;;;1.35;93.42;100977.41;8292498;28;20129;-73
2022/01/24 14:47:26;;;;;;;58.92;22.98;;;;;;;1.32;93.94;100983.16;8227207;28;20502;-73
2022/01/24 14:51:31;;;;;;;75.88;27.33;;;;;;;1.28;94.34;100983.56;8277739;28;20050;-72
2022/01/24 14:55:33;;;;;;;66.72;25.98;;;;;;;1.33;93.96;100974.13;8292076;28;20447;-72
2022/01/24 14:59:34;;;;;;;56.58;25.25;;;;;;;1.27;93.84;100976.59;8298530;28;20073;-73
2022/01/24 15:03:37;;;;;;;65.05;23.23;;;;;;;1.22;94.24;100976.38;8298327;28;20417;-73
2022/01/24 15:07:38;;;;;;;55.67;22.98;;;;;;;1.19;94.78;100983.94;8330101;28;20172;-73
2022/01/24 15:11:41;;;;;;;57.50;25.20;;;;;;;1.21;94.59;100971.28;8343269;28;20049;-73
2022/01/24 15:15:51;;;;;;;73.20;31.60;;;;;;;1.18;94.85;100972.47;8367064;28;20136;-73
2022/01/24 15:28:33;;;;;;;95.63;37.08;;;;;;;1.15;94.98;100967.56;8367050;28;20076;-73
2022/01/24 15:32:34;;;;;;;91.45;41.10;;;;;;;1.16;94.93;100969.19;8366980;28;20045;-72
2022/01/24 15:36:35;;;;;;;116.72;52.42;;;;;;;1.17;94.51;100970.84;8349370;28;20555;-73
2022/01/24 15:40:38;;;;;;;95.13;42.05;;;;;;;1.09;95.23;100967.56;8359390;28;20045;-72
2022/01/24 15:48:59;;;;;;;88.75;36.65;;;;;;;0.93;96.09;100963.44;8333377;28;20512;-73
2022/01/24 15:53:02;;;;;;;95.72;38.58;;;;;;;0.96;95.71;100967.50;8333840;28;20051;-73
2022/01/24 16:01:23;;;;;;;102.32;40.72;;;;;;;0.96;96.12;100967.50;8284437;28;20080;-72
2022/01/24 16:05:26;;;;;;;92.53;40.30;;;;;;;0.96;95.60;100968.31;8331694;28;20054;-72
2022/01/24 16:09:26;;;;;;;119.85;46.10;;;;;;;0.87;96.35;100969.53;8331364;28;20057;-73
2022/01/24 16:13:29;;;;;;;122.07;47.20;;;;;;;0.87;96.23;100966.88;8323223;28;20065;-73
2022/01/24 16:17:30;;;;;;;105.63;42.20;;;;;;;0.89;96.16;100972.81;8331893;28;20080;-75
2022/01/24 16:21:46;;;;;;;93.68;38.50;;;;;;;0.84;96.73;100969.94;8342829;28;20436;-73
2022/01/24 16:25:54;;;;;;;97.38;42.83;;;;;;;0.72;96.97;100960.91;8330963;28;20527;-72
2022/01/24 16:29:56;;;;;;;115.40;50.47;;;;;;;0.72;97.28;100971.53;8332761;28;20057;-74
2022/01/24 16:33:57;;;;;;;115.30;47.67;;;;;;;0.77;96.66;100980.56;8297500;28;20473;-72
2022/01/24 16:37:59;;;;;;;110.45;44.58;;;;;;;0.84;97.00;100972.63;8314169;28;20412;-72
2022/01/24 16:42:04;;;;;;;108.80;44.05;;;;;;;0.77;97.20;100974.41;8333248;28;20052;-72
2022/01/24 16:50:26;;;;;;;107.38;43.20;;;;;;;0.84;96.88;100959.31;8326123;28;20053;-73
2022/01/24 16:54:29;;;;;;;119.75;45.10;;;;;;;0.87;96.50;100958.91;8325095;28;20073;-72
2022/01/24 16:58:31;;;;;;;110.93;43.55;;;;;;;0.92;96.36;100961.78;8328783;28;20069;-73
2022/01/24 17:02:32;;;;;;;134.07;47.30;;;;;;;0.96;95.91;100963.00;8309859;28;20054;-72
2022/01/24 17:06:34;;;;;;;112.13;45.53;;;;;;;0.96;96.17;100963.00;8316329;28;20046;-73
2022/01/24 17:10:36;;;;;;;124.07;46.58;;;;;;;0.97;95.89;100969.97;8327974;28;20054;-72
2022/01/24 17:14:39;;;;;;;113.60;46.72;;;;;;;0.97;95.53;100975.28;8328577;28;20057;-73
2022/01/24 17:18:40;;;;;;;121.22;47.25;;;;;;;0.95;95.54;100966.72;8317468;28;20124;-72
2022/01/24 17:22:43;;;;;;;155.15;52.63;;;;;;;0.97;95.95;100972.63;8311944;28;20136;-73
2022/01/24 17:26:45;;;;;;;153.48;55.65;;;;;;;1.00;95.83;100980.22;8342938;28;20053;-73
2022/01/24 17:30:46;;;;;;;135.32;50.35;;;;;;;1.03;95.56;100979.81;8327553;28;20361;-73
2022/01/24 17:34:47;;;;;;;152.55;52.53;;;;;;;1.01;95.62;100973.88;8331470;28;20508;-73
2022/01/24 17:38:49;;;;;;;151.73;52.45;;;;;;;1.03;95.66;100973.69;8338298;28;20059;-73
2022/01/24 17:42:53;;;;;;;142.18;52.05;;;;;;;1.06;95.86;100968.75;8331038;28;20053;-74
2022/01/24 17:46:54;;;;;;;136.82;50.05;;;;;;;1.04;95.80;100965.50;8328785;28;20064;-73
2022/01/24 17:50:56;;;;;;;146.20;52.42;;;;;;;1.00;96.15;100964.28;8346045;28;20054;-73
2022/01/24 17:54:57;;;;;;;150.57;54.60;;;;;;;1.02;96.52;100962.22;8332073;28;20593;-73
2022/01/24 17:58:58;;;;;;;143.30;54.65;;;;;;;1.04;96.08;100970.81;8294690;28;20100;-73
2022/01/24 18:03:00;;;;;;;135.82;52.05;;;;;;;1.03;96.04;100958.53;8339715;28;20104;-74
2022/01/24 18:07:03;;;;;;;134.85;50.20;;;;;;;1.02;96.11;100950.75;8345119;28;20050;-73
2022/01/24 18:11:08;;;;;;;134.63;51.38;;;;;;;1.03;96.23;100958.53;8292502;28;20046;-74
2022/01/24 18:15:09;;;;;;;116.13;45.60;;;;;;;1.03;96.37;100958.53;8354202;28;20614;-72
2022/01/24 18:19:10;;;;;;;121.18;42.97;;;;;;;0.99;96.77;100951.16;8345018;28;20068;-73
2022/01/24 18:23:12;;;;;;;118.88;44.03;;;;;;;1.03;96.95;100947.88;8366135;28;20052;-73
2022/01/24 18:27:13;;;;;;;108.70;41.88;;;;;;;0.99;97.71;100949.31;8387906;28;20147;-73
2022/01/24 18:31:14;;;;;;;113.93;40.00;;;;;;;0.99;97.94;100951.97;8389409;28;20475;-74
2022/01/24 18:35:15;;;;;;;106.00;38.53;;;;;;;1.07;97.64;100949.13;8377922;28;20055;-73
2022/01/24 18:39:16;;;;;;;106.43;39.08;;;;;;;1.06;98.02;100941.34;8371456;28;20048;-73
2022/01/24 18:43:21;;;;;;;102.65;38.00;;;;;;;1.03;98.40;100947.88;8310473;28;20052;-72
2022/01/24 18:47:22;;;;;;;105.60;37.45;;;;;;;1.05;98.39;100945.88;8374275;28;20466;-73
2022/01/24 18:51:23;;;;;;;100.10;38.97;;;;;;;1.11;98.20;100938.91;8343266;28;20055;-73
2022/01/24 18:55:24;;;;;;;102.40;38.60;;;;;;;1.11;98.10;100939.72;8334858;28;20049;-72
2022/01/24 18:59:26;;;;;;;98.95;36.83;;;;;;;1.13;98.32;100943.00;8348371;28;20060;-72
2022/01/24 19:03:28;;;;;;;96.95;38.58;;;;;;;1.14;98.49;100939.31;8334563;28;20049;-72
2022/01/24 19:07:29;;;;;;;96.60;36.15;;;;;;;1.16;98.39;100931.13;8317087;28;20133;-72
2022/01/24 19:11:33;;;;;;;92.45;36.85;;;;;;;1.21;98.28;100934.84;8363283;28;20499;-73
2022/01/24 19:15:34;;;;;;;92.90;37.10;;;;;;;1.22;98.43;100941.78;8346343;28;20053;-72
2022/01/24 19:19:49;;;;;;;103.47;39.40;;;;;;;1.26;98.22;100944.88;8335021;28;20057;-73
2022/01/24 19:23:50;;;;;;;101.72;39.92;;;;;;;1.23;98.32;100943.41;8331530;28;20132;-72
2022/01/24 19:27:52;;;;;;;103.03;39.55;;;;;;;1.19;99.04;100947.50;8315733;28;20132;-72
2022/01/24 19:31:54;;;;;;;109.72;41.28;;;;;;;1.20;99.06;100938.50;8314276;28;20053;-72
2022/01/24 19:35:57;;;;;;;142.50;45.67;;;;;;;1.20;99.23;100949.16;8321552;28;20071;-72
2022/01/24 19:39:59;;;;;;;126.30;44.45;;;;;;;1.24;99.44;100939.75;8331017;28;20095;-72
2022/01/24 19:44:01;;;;;;;135.90;47.35;;;;;;;1.27;98.96;100949.97;8330535;28;20493;-72
2022/01/24 19:48:03;;;;;;;138.98;49.58;;;;;;;1.31;98.61;100944.25;8333100;28;20144;-72
2022/01/24 19:52:06;;;;;;;117.28;40.55;;;;;;;1.32;98.63;100940.56;8332373;28;20050;-72
2022/01/24 19:56:33;;;;;;;99.60;39.10;;;;;;;1.25;99.07;100936.06;8331351;28;20144;-73
2022/01/24 20:00:30;;;;;;;110.60;39.80;;;;;;;1.25;99.48;100936.06;8319372;28;20045;-72
2022/01/24 20:04:32;;;;;;;98.38;37.28;;;;;;;1.25;99.70;100927.25;8326161;28;20165;-72
2022/01/24 20:08:34;;;;;;;98.53;35.95;;;;;;;1.22;100.00;100933.78;8329006;28;20071;-71
2022/01/24 20:12:36;;;;;;;102.55;37.25;;;;;;;1.25;100.00;100929.91;8331949;28;20061;-72
2022/01/24 20:16:39;;;;;;;114.53;41.53;;;;;;;1.21;100.00;100918.88;8332055;28;20266;-72
2022/01/24 20:20:41;;;;;;;125.57;47.05;;;;;;;1.21;100.00;100924.19;8323677;28;20050;-73
2022/01/24 20:24:43;;;;;;;142.45;47.20;;;;;;;1.23;100.00;100922.13;8312171;28;20041;-72
2022/01/24 20:28:46;;;;;;;135.13;46.95;;;;;;;1.22;100.00;100936.44;8337813;28;20065;-73
2022/01/24 20:32:50;;;;;;;139.00;48.22;;;;;;;1.25;100.00;100936.06;8337823;28;20412;-73
2022/01/24 20:36:52;;;;;;;157.07;51.08;;;;;;;1.24;100.00;100928.28;8330729;28;20084;-73
2022/01/24 20:41:15;;;;;;;159.43;48.28;;;;;;;1.23;100.00;100927.44;8316937;28;20509;-73